createdAt,value
2018-11-12T00:01:13.820Z,4.73
2018-11-12T00:03:41.564Z,7.00
2018-11-12T00:06:09.268Z,4.00
2018-11-12T00:08:37.004Z,7.50
2018-11-12T00:11:05.096Z,4.93
2018-11-12T00:13:32.780Z,4.47
2018-11-12T00:16:00.469Z,4.33
2018-11-12T00:18:28.158Z,4.27
2018-11-12T00:20:55.880Z,3.63
2018-11-12T00:23:24.237Z,3.43
2018-11-12T00:25:51.996Z,5.17
2018-11-12T00:28:19.717Z,4.50
2018-11-12T00:30:47.438Z,7.63
2018-11-12T00:33:15.142Z,7.53
2018-11-12T00:35:42.805Z,4.80
2018-11-12T00:38:10.525Z,3.83
2018-11-12T00:40:38.268Z,4.37
2018-11-12T00:43:05.976Z,3.73
2018-11-12T00:45:33.632Z,4.60
2018-11-12T00:48:01.277Z,5.10
2018-11-12T00:50:28.940Z,5.23
2018-11-12T00:52:56.600Z,4.67
2018-11-12T00:55:24.290Z,5.17
2018-11-12T00:57:51.972Z,4.53
2018-11-12T01:00:20.052Z,4.90
2018-11-12T01:02:48.978Z,2.73
2018-11-12T01:05:17.462Z,6.30
2018-11-12T01:07:45.763Z,3.83
2018-11-12T01:10:14.408Z,3.90
2018-11-12T01:12:42.714Z,5.20
2018-11-12T01:15:12.006Z,4.90
2018-11-12T01:17:40.308Z,5.87
2018-11-12T01:20:09.400Z,4.90
2018-11-12T01:22:37.062Z,4.33
2018-11-12T01:25:05.273Z,3.47
2018-11-12T01:27:32.950Z,4.37
2018-11-12T01:30:00.633Z,6.00
2018-11-12T01:32:28.524Z,4.47
2018-11-12T01:34:56.145Z,4.93
2018-11-12T01:37:23.825Z,6.00
2018-11-12T01:39:51.544Z,3.80
2018-11-12T01:42:19.273Z,5.93
2018-11-12T01:44:47.004Z,4.30
2018-11-12T01:47:14.745Z,3.97
2018-11-12T01:49:42.433Z,5.13
2018-11-12T01:52:10.148Z,4.17
2018-11-12T01:54:37.861Z,8.47
2018-11-12T01:57:05.586Z,5.10
2018-11-12T01:59:33.216Z,4.33
2018-11-12T02:02:00.882Z,7.33
2018-11-12T02:04:28.562Z,5.43
2018-11-12T02:06:56.250Z,4.60
2018-11-12T02:09:23.908Z,4.33
2018-11-12T02:11:51.633Z,4.97
2018-11-12T02:14:19.369Z,6.77
2018-11-12T02:16:47.111Z,5.67
2018-11-12T02:19:14.794Z,5.13
2018-11-12T02:21:42.521Z,5.27
2018-11-12T02:24:10.280Z,4.73
2018-11-12T02:26:37.998Z,4.50
2018-11-12T02:29:05.897Z,6.37
2018-11-12T02:31:33.554Z,9.60
2018-11-12T02:34:01.265Z,9.73
2018-11-12T02:36:29.018Z,9.10
2018-11-12T02:38:56.756Z,7.10
2018-11-12T02:41:24.472Z,7.17
2018-11-12T02:43:52.208Z,9.10
2018-11-12T02:46:19.877Z,10.97
2018-11-12T02:48:47.657Z,10.23
2018-11-12T02:51:15.409Z,9.03
2018-11-12T02:53:43.127Z,9.00
2018-11-12T02:56:12.784Z,7.30
2018-11-12T02:58:40.829Z,10.70
2018-11-12T03:01:08.892Z,7.83
2018-11-12T03:03:36.565Z,9.17
2018-11-12T03:06:04.293Z,10.63
2018-11-12T03:08:31.993Z,7.90
2018-11-12T03:10:59.766Z,7.97
2018-11-12T03:13:27.466Z,5.50
2018-11-12T03:15:55.201Z,8.53
2018-11-12T03:18:22.949Z,5.67
2018-11-12T03:20:50.665Z,8.03
2018-11-12T03:23:18.431Z,4.63
2018-11-12T03:25:46.176Z,6.87
2018-11-12T03:28:13.787Z,4.43
2018-11-12T03:30:41.540Z,3.90
2018-11-12T03:33:09.250Z,5.20
2018-11-12T03:35:36.956Z,8.37
2018-11-12T03:38:04.720Z,4.70
2018-11-12T03:40:32.484Z,8.50
2018-11-12T03:43:00.117Z,6.33
2018-11-12T03:45:27.788Z,6.40
2018-11-12T03:47:55.525Z,8.33
2018-11-12T03:50:24.265Z,7.03
2018-11-12T03:52:51.964Z,7.30
2018-11-12T03:55:20.723Z,7.40
2018-11-12T03:57:48.419Z,5.90
2018-11-12T04:00:20.238Z,8.47
2018-11-12T04:02:47.993Z,5.63
2018-11-12T04:05:15.817Z,3.63
2018-11-12T04:07:43.608Z,6.83
2018-11-12T04:10:18.669Z,6.83
2018-11-12T04:12:46.400Z,6.23
2018-11-12T04:15:15.392Z,7.50
2018-11-12T04:17:43.089Z,5.83
2018-11-12T04:20:12.564Z,10.23
2018-11-12T04:22:41.060Z,4.97
2018-11-12T04:25:10.568Z,4.97
2018-11-12T04:27:38.292Z,7.67
2018-11-12T04:30:10.935Z,6.43
2018-11-12T04:32:38.668Z,6.07
2018-11-12T04:35:07.040Z,8.40
2018-11-12T04:37:34.723Z,5.30
2018-11-12T04:40:02.549Z,5.43
2018-11-12T04:42:30.246Z,4.37
2018-11-12T04:44:57.973Z,4.77
2018-11-12T04:47:25.641Z,8.33
2018-11-12T04:49:53.666Z,5.77
2018-11-12T04:52:21.393Z,4.30
2018-11-12T04:54:49.085Z,4.83
2018-11-12T04:57:16.819Z,5.90
2018-11-12T04:59:44.493Z,4.70
2018-11-12T05:02:12.289Z,4.90
2018-11-12T05:04:39.990Z,5.97
2018-11-12T05:07:07.726Z,4.17
2018-11-12T05:09:35.366Z,3.70
2018-11-12T05:12:03.209Z,6.30
2018-11-12T05:14:30.903Z,7.03
2018-11-12T05:16:58.720Z,7.37
2018-11-12T05:19:26.423Z,7.10
2018-11-12T05:21:54.554Z,7.10
2018-11-12T05:24:22.245Z,6.33
2018-11-12T05:26:49.996Z,4.93
2018-11-12T05:29:17.652Z,5.33
2018-11-12T05:31:45.389Z,4.20
2018-11-12T05:34:13.144Z,4.67
2018-11-12T05:36:40.773Z,5.13
2018-11-12T05:39:11.332Z,5.20
2018-11-12T05:41:39.146Z,7.63
2018-11-12T05:44:07.216Z,5.87
2018-11-12T05:46:34.902Z,4.63
2018-11-12T05:49:02.913Z,5.20
2018-11-12T05:51:30.667Z,5.87
2018-11-12T05:53:58.425Z,3.87
2018-11-12T05:56:27.295Z,4.73
2018-11-12T05:58:55.063Z,4.17
2018-11-12T06:01:22.832Z,4.60
2018-11-12T06:03:50.909Z,5.17
2018-11-12T06:06:18.673Z,5.30
2018-11-12T06:08:46.737Z,4.33
2018-11-12T06:11:14.630Z,3.67
2018-11-12T06:13:42.392Z,4.67
2018-11-12T06:16:10.341Z,7.10
2018-11-12T06:18:38.373Z,6.43
2018-11-12T06:21:06.068Z,6.70
2018-11-12T06:23:33.741Z,7.20
2018-11-12T06:26:01.534Z,6.13
2018-11-12T06:28:29.208Z,6.77
2018-11-12T06:30:57.103Z,9.27
2018-11-12T06:33:25.045Z,6.90
2018-11-12T06:35:52.717Z,5.23
2018-11-12T06:38:21.132Z,6.57
2018-11-12T06:40:48.844Z,6.30
2018-11-12T06:43:17.094Z,9.47
2018-11-12T06:45:44.811Z,6.50
2018-11-12T06:48:12.748Z,7.40
2018-11-12T06:50:41.358Z,8.43
2018-11-12T06:53:09.235Z,4.37
2018-11-12T06:55:36.846Z,8.80
2018-11-12T06:58:04.985Z,5.30
2018-11-12T07:00:33.992Z,8.77
2018-11-12T07:03:02.306Z,7.87
2018-11-12T07:05:30.873Z,8.67
2018-11-12T07:07:58.868Z,8.03
2018-11-12T07:10:28.166Z,8.30
2018-11-12T07:12:57.145Z,8.97
2018-11-12T07:15:26.217Z,8.33
2018-11-12T07:17:54.432Z,14.00
2018-11-12T07:20:24.612Z,8.63
2018-11-12T07:22:52.725Z,9.17
2018-11-12T07:25:22.840Z,9.50
2018-11-12T07:27:50.605Z,10.00
2018-11-12T07:30:20.971Z,11.63
2018-11-12T07:32:50.047Z,18.77
2018-11-12T07:35:18.437Z,15.57
2018-11-12T07:37:48.349Z,9.53
2018-11-12T07:40:16.709Z,8.73
2018-11-12T07:42:44.485Z,9.60
2018-11-12T07:45:13.825Z,11.83
2018-11-12T07:47:42.506Z,10.60
2018-11-12T07:50:12.297Z,8.67
2018-11-12T07:52:43.324Z,8.63
2018-11-12T07:55:13.573Z,8.27
2018-11-12T07:57:41.776Z,5.17
2018-11-12T08:00:13.233Z,5.07
2018-11-12T08:02:42.145Z,6.37
2018-11-12T08:05:10.501Z,6.33
2018-11-12T08:07:38.474Z,5.33
2018-11-12T08:10:08.601Z,5.30
2018-11-12T08:12:36.382Z,7.73
2018-11-12T08:15:05.622Z,6.17
2018-11-12T08:17:33.444Z,4.73
2018-11-12T08:20:01.258Z,4.97
2018-11-12T08:22:29.018Z,6.50
2018-11-12T08:24:56.689Z,5.40
2018-11-12T08:27:24.568Z,6.27
2018-11-12T08:29:52.219Z,9.13
2018-11-12T08:32:19.889Z,5.10
2018-11-12T08:34:49.932Z,7.27
2018-11-12T08:37:17.905Z,5.13
2018-11-12T08:39:45.744Z,6.50
2018-11-12T08:42:13.245Z,6.73
2018-11-12T08:44:40.969Z,8.07
2018-11-12T08:47:08.680Z,8.20
2018-11-12T08:49:36.526Z,6.67
2018-11-12T08:52:04.514Z,8.63
2018-11-12T08:54:32.308Z,10.97
2018-11-12T08:57:04.381Z,9.43
2018-11-12T08:59:32.186Z,7.43
2018-11-12T09:01:59.960Z,10.83
2018-11-12T09:04:27.629Z,11.13
2018-11-12T09:06:55.372Z,9.63
2018-11-12T09:09:23.076Z,9.00
2018-11-12T09:11:50.813Z,11.17
2018-11-12T09:14:18.528Z,11.40
2018-11-12T09:16:46.219Z,11.53
2018-11-12T09:19:14.100Z,17.00
2018-11-12T09:21:41.809Z,9.90
2018-11-12T09:24:09.632Z,9.17
2018-11-12T09:26:37.372Z,9.07
2018-11-12T09:29:05.157Z,8.70
2018-11-12T09:31:32.968Z,8.93
2018-11-12T09:34:01.068Z,6.67
2018-11-12T09:36:28.837Z,7.13
2018-11-12T09:41:24.328Z,7.03
2018-11-12T09:43:51.904Z,8.77
2018-11-12T09:46:19.586Z,7.73
2018-11-12T09:48:47.666Z,6.57
2018-11-12T09:51:15.308Z,7.40
2018-11-12T09:53:43.144Z,8.43
2018-11-12T09:56:10.857Z,11.07
2018-11-12T09:58:38.521Z,9.07
2018-11-12T10:01:06.519Z,10.27
2018-11-12T10:03:35.160Z,8.27
2018-11-12T10:06:02.801Z,10.90
2018-11-12T10:08:35.337Z,11.77
2018-11-12T10:11:04.437Z,10.77
2018-11-12T10:13:31.790Z,12.60
2018-11-12T10:15:59.997Z,9.30
2018-11-12T10:18:25.585Z,11.00
2018-11-12T10:20:53.304Z,10.30
2018-11-12T10:23:21.592Z,7.97
2018-11-12T10:25:49.317Z,6.40
2018-11-12T10:28:18.225Z,10.83
2018-11-12T10:30:45.895Z,8.97
2018-11-12T10:33:13.617Z,9.23
2018-11-12T10:35:41.317Z,7.87
2018-11-12T10:38:09.414Z,11.43
2018-11-12T10:40:37.197Z,8.43
2018-11-12T10:43:07.650Z,11.00
2018-11-12T10:45:35.420Z,10.93
2018-11-12T10:48:03.318Z,9.33
2018-11-12T10:50:30.894Z,8.70
2018-11-12T10:52:58.620Z,7.77
2018-11-12T10:55:26.455Z,10.57
2018-11-12T10:57:54.265Z,10.67
2018-11-12T11:00:30.857Z,9.80
2018-11-12T11:03:07.960Z,9.33
2018-11-12T11:05:36.708Z,13.67
2018-11-12T11:08:04.687Z,5.57
2018-11-12T11:10:32.331Z,4.93
2018-11-12T11:13:01.225Z,7.50
2018-11-12T11:15:29.562Z,6.03
2018-11-12T11:17:57.265Z,8.67
2018-11-12T11:20:25.065Z,6.70
2018-11-12T11:22:54.006Z,8.10
2018-11-12T11:25:21.717Z,5.03
2018-11-12T11:27:49.472Z,6.13
2018-11-12T11:30:17.549Z,7.70
2018-11-12T11:32:45.468Z,4.63
2018-11-12T11:35:14.410Z,4.07
2018-11-12T11:37:42.150Z,4.80
2018-11-12T11:40:14.202Z,8.20
2018-11-12T11:42:42.161Z,7.10
2018-11-12T11:45:11.261Z,7.63
2018-11-12T11:47:39.810Z,9.77
2018-11-12T11:50:09.723Z,7.33
2018-11-12T11:52:37.392Z,10.57
2018-11-12T11:55:08.143Z,8.67
2018-11-12T11:57:35.992Z,4.77
2018-11-12T12:00:08.778Z,9.07
2018-11-12T12:02:36.436Z,9.07
2018-11-12T12:05:06.021Z,6.17
2018-11-12T12:07:34.057Z,5.80
2018-11-12T12:10:01.840Z,7.17
2018-11-12T12:12:29.568Z,7.30
2018-11-12T12:14:57.236Z,5.23
2018-11-12T12:17:24.929Z,6.33
2018-11-12T12:19:52.764Z,7.03
2018-11-12T12:22:20.467Z,4.57
2018-11-12T12:24:48.309Z,6.87
2018-11-12T12:27:15.928Z,6.67
2018-11-12T12:29:43.805Z,8.20
2018-11-12T12:32:11.537Z,8.63
2018-11-12T12:34:39.313Z,5.90
2018-11-12T12:37:06.964Z,6.17
2018-11-12T12:39:34.658Z,6.87
2018-11-12T12:42:02.306Z,8.63
2018-11-12T12:44:31.670Z,6.63
2018-11-12T12:46:59.293Z,8.93
2018-11-12T12:49:27.155Z,8.30
2018-11-12T12:51:54.906Z,20.23
2018-11-12T12:54:22.651Z,15.90
2018-11-12T12:56:50.336Z,12.90
2018-11-12T12:59:18.053Z,12.67
2018-11-12T13:01:45.785Z,11.47
2018-11-12T13:04:13.436Z,11.90
2018-11-12T13:06:41.236Z,11.97
2018-11-12T13:09:09.576Z,13.07
2018-11-12T13:11:37.604Z,12.30
2018-11-12T13:14:06.063Z,13.20
2018-11-12T13:16:33.548Z,12.63
2018-11-12T13:19:01.257Z,10.40
2018-11-12T13:21:29.067Z,10.20
2018-11-12T13:23:56.663Z,13.27
2018-11-12T13:26:24.318Z,9.30
2018-11-12T13:28:52.050Z,11.23
2018-11-12T13:31:19.820Z,8.30
2018-11-12T13:33:47.545Z,6.33
2018-11-12T13:36:15.233Z,6.67
2018-11-12T13:38:42.907Z,8.03
2018-11-12T13:41:10.586Z,11.43
2018-11-12T13:43:38.266Z,5.37
2018-11-12T13:46:05.926Z,8.93
2018-11-12T13:48:33.613Z,7.00
2018-11-12T13:51:01.369Z,8.20
2018-11-12T13:53:29.120Z,10.37
2018-11-12T13:55:56.850Z,12.20
2018-11-12T13:58:24.549Z,10.67
2018-11-12T14:00:52.296Z,9.57
2018-11-12T14:03:20.065Z,9.93
2018-11-12T14:05:47.806Z,11.03
2018-11-12T14:08:15.650Z,6.63
2018-11-12T14:10:43.429Z,6.47
2018-11-12T14:13:11.117Z,5.60
2018-11-12T14:15:38.778Z,8.90
2018-11-12T14:18:06.592Z,7.43
2018-11-12T14:20:34.490Z,7.97
2018-11-12T14:23:02.050Z,6.80
2018-11-12T14:25:30.381Z,8.13
2018-11-12T14:27:58.266Z,6.60
2018-11-12T14:30:27.409Z,4.93
2018-11-12T14:32:55.149Z,6.57
2018-11-12T14:35:22.945Z,6.17
2018-11-12T14:37:50.663Z,5.97
2018-11-12T14:40:19.918Z,6.53
2018-11-12T14:42:47.657Z,5.73
2018-11-12T14:45:17.793Z,7.40
2018-11-12T14:47:45.876Z,6.47
2018-11-12T14:50:13.668Z,6.87
2018-11-12T14:52:41.349Z,4.80
2018-11-12T14:55:10.847Z,4.90
2018-11-12T14:57:38.600Z,3.80
2018-11-12T15:00:12.862Z,5.00
2018-11-12T15:02:40.679Z,6.37
2018-11-12T15:05:09.226Z,8.23
2018-11-12T15:07:36.966Z,4.93
2018-11-12T15:10:07.106Z,4.07
2018-11-12T15:12:34.893Z,4.33
2018-11-12T15:15:02.979Z,10.17
2018-11-12T15:17:30.712Z,7.40
2018-11-12T15:19:58.968Z,3.67
2018-11-12T15:22:28.108Z,9.70
2018-11-12T15:24:55.817Z,7.63
2018-11-12T15:27:23.448Z,13.13
2018-11-12T15:29:51.126Z,8.33
2018-11-12T15:32:18.834Z,5.20
2018-11-12T15:34:46.597Z,8.03
2018-11-12T15:37:14.467Z,6.77
2018-11-12T15:39:42.804Z,6.43
2018-11-12T15:42:10.478Z,11.07
2018-11-12T15:44:38.240Z,5.03
2018-11-12T15:47:05.921Z,5.73
2018-11-12T15:49:33.749Z,8.23
2018-11-12T15:52:01.543Z,8.90
2018-11-12T15:54:29.257Z,8.10
2018-11-12T15:56:56.963Z,10.93
2018-11-12T15:59:24.671Z,8.47
2018-11-12T16:01:52.360Z,9.80
2018-11-12T16:04:20.117Z,8.87
2018-11-12T16:06:47.896Z,14.00
2018-11-12T16:09:16.016Z,5.97
2018-11-12T16:11:44.372Z,6.50
2018-11-12T16:14:12.045Z,9.13
2018-11-12T16:16:39.833Z,9.43
2018-11-12T16:19:08.589Z,9.67
2018-11-12T16:21:36.289Z,8.00
2018-11-12T16:24:04.344Z,8.93
2018-11-12T16:26:32.152Z,10.67
2018-11-12T16:28:59.880Z,7.10
2018-11-12T16:31:27.783Z,7.60
2018-11-12T16:33:55.581Z,9.27
2018-11-12T16:36:23.426Z,8.43
2018-11-12T16:38:51.774Z,6.70
2018-11-12T16:41:19.496Z,8.97
2018-11-12T16:43:47.158Z,8.20
2018-11-12T16:46:14.916Z,6.20
2018-11-12T16:48:45.219Z,5.37
2018-11-12T16:51:12.996Z,8.73
2018-11-12T16:53:40.717Z,6.70
2018-11-12T16:56:08.473Z,8.93
2018-11-12T16:58:36.209Z,7.33
2018-11-12T17:01:04.230Z,3.97
2018-11-12T17:03:31.909Z,4.33
2018-11-12T17:06:00.321Z,3.33
2018-11-12T17:08:29.217Z,1.87
2018-11-12T17:10:58.892Z,3.60
2018-11-12T17:13:26.686Z,3.53
2018-11-12T17:15:54.679Z,3.40
2018-11-12T17:18:23.133Z,3.40
2018-11-12T17:20:51.364Z,3.37
2018-11-12T17:23:19.544Z,5.47
2018-11-12T17:25:47.879Z,3.47
2018-11-12T17:28:16.593Z,2.77
2018-11-12T17:30:45.443Z,2.37
2018-11-12T17:33:13.469Z,2.20
2018-11-12T17:35:41.233Z,2.77
2018-11-12T17:38:08.912Z,3.00
2018-11-12T17:40:36.660Z,3.10
2018-11-12T17:43:04.888Z,5.70
2018-11-12T17:45:32.620Z,4.63
2018-11-12T17:48:00.391Z,2.20
2018-11-12T17:50:28.134Z,3.80
2018-11-12T17:52:55.884Z,1.93
2018-11-12T17:55:23.576Z,4.43
2018-11-12T17:57:51.317Z,2.63
2018-11-12T18:00:22.877Z,2.40
2018-11-12T18:02:50.641Z,2.57
2018-11-12T18:05:18.514Z,2.73
2018-11-12T18:07:46.558Z,3.50
2018-11-12T18:10:15.157Z,2.63
2018-11-12T18:12:43.224Z,3.03
2018-11-12T18:15:13.668Z,2.63
2018-11-12T18:17:41.696Z,3.70
2018-11-12T18:20:13.440Z,3.93
2018-11-12T18:22:41.381Z,1.60
2018-11-12T18:25:10.217Z,4.17
2018-11-12T18:27:38.223Z,3.03
2018-11-12T18:30:11.542Z,3.40
2018-11-12T18:32:39.260Z,6.27
2018-11-12T18:35:07.311Z,3.00
2018-11-12T18:37:35.360Z,4.83
2018-11-12T18:40:03.656Z,3.90
2018-11-12T18:42:31.489Z,5.93
2018-11-12T18:44:59.285Z,4.23
2018-11-12T18:47:27.213Z,2.33
2018-11-12T18:49:55.229Z,5.30
2018-11-12T18:52:22.945Z,4.70
2018-11-12T18:54:50.597Z,6.33
2018-11-12T18:57:18.633Z,6.00
2018-11-12T18:59:46.297Z,5.73
2018-11-12T19:02:14.012Z,26.27
2018-11-12T19:04:41.733Z,24.33
2018-11-12T19:07:10.151Z,21.47
2018-11-12T19:09:37.929Z,23.63
2018-11-12T19:12:05.716Z,14.37
2018-11-12T19:14:33.447Z,23.57
2018-11-12T19:17:01.169Z,15.27
2018-11-12T19:19:28.860Z,14.13
2018-11-12T19:21:56.546Z,13.73
2018-11-12T19:24:24.221Z,9.73
2018-11-12T19:26:51.982Z,7.23
2018-11-12T19:29:19.754Z,9.93
2018-11-12T19:31:47.457Z,11.80
2018-11-12T19:34:15.460Z,9.17
2018-11-12T19:36:43.720Z,4.70
2018-11-12T19:39:11.426Z,5.17
2018-11-12T19:41:39.319Z,7.23
2018-11-12T19:44:07.084Z,4.50
2018-11-12T19:46:34.782Z,9.93
2018-11-12T19:49:02.482Z,4.53
2018-11-12T19:51:30.260Z,7.37
2018-11-12T19:53:57.845Z,8.57
2018-11-12T19:56:25.866Z,5.53
2018-11-12T19:58:53.775Z,6.73
2018-11-12T20:01:25.104Z,7.43
2018-11-12T20:03:52.882Z,7.30
2018-11-12T20:06:20.593Z,7.80
2018-11-12T20:08:48.341Z,5.43
2018-11-12T20:11:16.616Z,5.83
2018-11-12T20:13:44.312Z,7.87
2018-11-12T20:16:12.004Z,6.63
2018-11-12T20:18:39.797Z,12.47
2018-11-12T20:21:07.434Z,10.33
2018-11-12T20:23:35.218Z,8.50
2018-11-12T20:26:03.011Z,9.47
2018-11-12T20:28:31.101Z,8.23
2018-11-12T20:30:58.856Z,9.00
2018-11-12T20:33:26.541Z,4.30
2018-11-12T20:35:54.230Z,6.57
2018-11-12T20:38:22.321Z,5.80
2018-11-12T20:40:50.047Z,4.40
2018-11-12T20:43:17.746Z,4.40
2018-11-12T20:45:45.393Z,6.70
2018-11-12T20:48:13.255Z,4.90
2018-11-12T20:50:40.905Z,4.37
2018-11-12T20:53:08.655Z,5.03
2018-11-12T20:55:36.392Z,3.60
2018-11-12T20:58:04.275Z,3.90
2018-11-12T21:00:32.034Z,5.87
2018-11-12T21:03:00.132Z,4.10
2018-11-12T21:05:29.085Z,6.27
2018-11-12T21:07:57.022Z,4.00
2018-11-12T21:10:24.751Z,3.13
2018-11-12T21:12:52.796Z,3.63
2018-11-12T21:15:22.069Z,5.03
2018-11-12T21:17:50.230Z,3.50
2018-11-12T21:20:20.157Z,3.00
2018-11-12T21:22:47.816Z,3.07
2018-11-12T21:25:16.917Z,3.30
2018-11-12T21:27:44.684Z,3.50
2018-11-12T21:30:15.277Z,4.40
2018-11-12T21:32:43.299Z,4.70
2018-11-12T21:35:11.374Z,9.37
2018-11-12T21:37:39.093Z,5.43
2018-11-12T21:40:11.352Z,4.27
2018-11-12T21:42:39.192Z,3.00
2018-11-12T21:45:09.097Z,3.23
2018-11-12T21:47:37.157Z,3.83
2018-11-12T21:50:07.577Z,3.13
2018-11-12T21:52:35.261Z,4.33
2018-11-12T21:55:03.444Z,4.00
2018-11-12T21:57:31.445Z,5.57
2018-11-12T21:59:59.155Z,4.87
2018-11-12T22:02:26.874Z,5.20
2018-11-12T22:04:54.618Z,4.63
2018-11-12T22:07:23.499Z,4.33
2018-11-12T22:09:51.344Z,3.70
2018-11-12T22:12:19.105Z,4.73
2018-11-12T22:14:47.372Z,6.03
2018-11-12T22:17:14.997Z,2.60
2018-11-12T22:19:42.913Z,6.73
2018-11-12T22:22:11.128Z,3.80
2018-11-12T22:24:38.837Z,4.93
2018-11-12T22:27:06.561Z,5.00
2018-11-12T22:29:34.612Z,4.73
2018-11-12T22:32:02.293Z,4.63
2018-11-12T22:34:30.013Z,4.87
2018-11-12T22:36:57.685Z,5.23
2018-11-12T22:39:25.404Z,6.63
2018-11-12T22:41:53.168Z,6.57
2018-11-12T22:44:21.313Z,5.43
2018-11-12T22:46:49.522Z,3.63
2018-11-12T22:49:17.180Z,4.13
2018-11-12T22:51:44.962Z,3.83
2018-11-12T22:54:12.610Z,3.37
2018-11-12T22:56:40.332Z,5.50
2018-11-12T22:59:08.087Z,6.43
2018-11-12T23:01:35.725Z,4.33
2018-11-12T23:04:04.251Z,4.07
2018-11-12T23:06:32.392Z,5.73
2018-11-12T23:09:00.133Z,5.70
2018-11-12T23:11:27.772Z,5.80
2018-11-12T23:13:55.493Z,5.93
2018-11-12T23:16:23.222Z,4.10
2018-11-12T23:18:50.985Z,5.20
2018-11-12T23:21:19.076Z,6.20
2018-11-12T23:23:46.713Z,5.33
2018-11-12T23:26:14.500Z,4.07
2018-11-12T23:28:42.150Z,5.37
2018-11-12T23:31:09.925Z,5.33
2018-11-12T23:33:37.568Z,4.07
2018-11-12T23:36:05.772Z,2.70
2018-11-12T23:38:33.576Z,4.37
2018-11-12T23:41:01.325Z,5.10
2018-11-12T23:43:29.026Z,4.03
2018-11-12T23:45:56.708Z,3.13
2018-11-12T23:48:24.324Z,5.93
2018-11-12T23:50:52.077Z,4.30
2018-11-12T23:53:19.781Z,5.67
2018-11-12T23:55:47.445Z,4.47
2018-11-12T23:58:15.601Z,4.37
